createdAt,value
2019-05-25T00:00:19.185Z,29.23
2019-05-25T00:02:53.012Z,27.45
2019-05-25T00:05:26.759Z,26.95
2019-05-25T00:08:04.398Z,25.45
2019-05-25T00:10:38.166Z,27.80
2019-05-25T00:13:12.377Z,27.37
2019-05-25T00:15:46.046Z,26.35
2019-05-25T00:18:19.788Z,26.48
2019-05-25T00:20:53.646Z,27.90
2019-05-25T00:23:28.673Z,26.82
2019-05-25T00:26:02.863Z,27.80
2019-05-25T00:28:36.576Z,27.77
2019-05-25T00:31:10.240Z,27.40
2019-05-25T00:33:44.035Z,28.90
2019-05-25T00:36:18.626Z,29.12
2019-05-25T00:38:53.381Z,28.83
2019-05-25T00:41:27.093Z,28.50
2019-05-25T00:44:00.789Z,30.40
2019-05-25T00:46:34.359Z,31.37
2019-05-25T00:49:08.178Z,32.38
2019-05-25T00:51:42.351Z,28.98
2019-05-25T00:54:27.432Z,29.02
2019-05-25T00:56:52.956Z,30.50
2019-05-25T00:59:26.763Z,30.90
2019-05-25T01:02:00.559Z,30.95
2019-05-25T01:04:34.362Z,30.17
2019-05-25T01:07:08.044Z,31.45
2019-05-25T01:09:41.755Z,31.20
2019-05-25T01:12:15.946Z,29.95
2019-05-25T01:14:50.597Z,31.00
2019-05-25T01:17:24.217Z,31.48
2019-05-25T01:19:58.025Z,31.12
2019-05-25T01:22:32.135Z,30.90
2019-05-25T01:25:07.325Z,29.77
2019-05-25T01:27:41.184Z,32.50
2019-05-25T01:30:17.462Z,31.10
2019-05-25T01:32:51.187Z,31.80
2019-05-25T01:35:25.998Z,29.80
2019-05-25T01:38:01.112Z,29.50
2019-05-25T01:40:34.893Z,31.62
2019-05-25T01:43:08.707Z,31.75
2019-05-25T01:45:44.165Z,32.58
2019-05-25T01:48:17.979Z,30.77
2019-05-25T01:50:51.738Z,31.85
2019-05-25T01:53:25.568Z,30.97
2019-05-25T01:56:00.845Z,31.45
2019-05-25T01:58:35.842Z,32.35
2019-05-25T02:01:09.920Z,31.52
2019-05-25T02:03:43.632Z,29.63
2019-05-25T02:06:17.807Z,31.90
2019-05-25T02:08:53.632Z,31.25
2019-05-25T02:11:27.362Z,29.70
2019-05-25T02:14:01.089Z,29.70
2019-05-25T02:16:34.768Z,28.70
2019-05-25T02:19:08.510Z,29.00
2019-05-25T02:21:42.483Z,28.65
2019-05-25T02:24:17.087Z,29.02
2019-05-25T02:26:50.864Z,29.72
2019-05-25T02:29:24.587Z,28.32
2019-05-25T02:31:58.350Z,27.62
2019-05-25T02:34:32.664Z,28.87
2019-05-25T02:37:06.467Z,29.72
2019-05-25T02:39:42.087Z,30.60
2019-05-25T02:42:15.772Z,29.82
2019-05-25T02:44:50.495Z,30.25
2019-05-25T02:47:24.168Z,28.40
2019-05-25T02:49:57.864Z,30.02
2019-05-25T02:52:31.795Z,27.17
2019-05-25T02:55:09.211Z,28.25
2019-05-25T02:57:45.126Z,26.97
2019-05-25T03:00:21.751Z,28.17
2019-05-25T03:02:55.634Z,26.90
2019-05-25T03:05:29.371Z,25.72
2019-05-25T03:08:03.657Z,27.75
2019-05-25T03:10:39.056Z,27.07
2019-05-25T03:13:13.188Z,26.85
2019-05-25T03:15:46.992Z,25.97
2019-05-25T03:18:21.106Z,26.52
2019-05-25T03:20:54.998Z,26.02
2019-05-25T03:23:29.807Z,27.60
2019-05-25T03:26:03.555Z,28.30
2019-05-25T03:28:37.364Z,26.57
2019-05-25T03:31:11.575Z,26.70
2019-05-25T03:33:45.469Z,25.68
2019-05-25T03:36:19.286Z,27.42
2019-05-25T03:38:53.513Z,25.70
2019-05-25T03:41:27.572Z,24.82
2019-05-25T03:44:01.459Z,25.45
2019-05-25T03:46:36.286Z,24.12
2019-05-25T03:49:10.387Z,24.47
2019-05-25T03:51:44.551Z,25.92
2019-05-25T03:54:20.247Z,24.57
2019-05-25T03:56:53.874Z,23.85
2019-05-25T03:59:29.211Z,22.95
2019-05-25T04:02:03.017Z,24.37
2019-05-25T04:04:36.764Z,24.07
2019-05-25T04:07:10.541Z,23.38
2019-05-25T04:09:44.280Z,24.10
2019-05-25T04:12:18.046Z,22.13
2019-05-25T04:14:51.787Z,22.70
2019-05-25T04:17:25.649Z,34.73
2019-05-25T04:19:59.565Z,24.35
2019-05-25T04:22:33.235Z,24.82
2019-05-25T04:25:09.660Z,25.80
2019-05-25T04:27:43.477Z,26.00
2019-05-25T04:30:18.876Z,26.05
2019-05-25T04:32:54.235Z,24.15
2019-05-25T04:35:27.980Z,24.52
2019-05-25T04:38:01.683Z,24.85
2019-05-25T04:40:36.321Z,24.82
2019-05-25T04:43:10.012Z,23.50
2019-05-25T04:45:44.331Z,23.83
2019-05-25T04:48:18.311Z,23.05
2019-05-25T04:50:52.788Z,22.37
2019-05-25T04:53:26.477Z,22.85
2019-05-25T04:56:00.382Z,22.17
2019-05-25T04:58:34.087Z,21.15
2019-05-25T05:01:07.797Z,20.35
2019-05-25T05:03:42.195Z,20.15
2019-05-25T05:06:15.906Z,20.55
2019-05-25T05:08:51.357Z,18.02
2019-05-25T05:11:25.311Z,18.27
2019-05-25T05:14:00.903Z,19.60
2019-05-25T05:16:36.771Z,18.60
2019-05-25T05:19:10.887Z,18.10
2019-05-25T05:21:45.689Z,15.50
2019-05-25T05:24:19.421Z,16.95
2019-05-25T05:26:56.462Z,18.17
2019-05-25T05:29:31.516Z,15.63
2019-05-25T05:32:05.622Z,14.93
2019-05-25T05:34:39.321Z,13.93
2019-05-25T05:37:14.755Z,15.38
2019-05-25T05:39:49.123Z,14.60
2019-05-25T05:42:25.438Z,13.70
2019-05-25T05:45:00.325Z,13.35
2019-05-25T05:47:36.586Z,12.20
2019-05-25T05:50:12.084Z,14.38
2019-05-25T05:52:48.936Z,13.22
2019-05-25T05:55:27.536Z,11.90
2019-05-25T05:58:03.587Z,11.93
2019-05-25T06:00:38.436Z,10.98
2019-05-25T06:03:12.236Z,11.50
2019-05-25T06:05:45.965Z,12.13
2019-05-25T06:08:19.755Z,11.22
2019-05-25T06:10:53.454Z,9.65
2019-05-25T06:13:27.147Z,10.18
2019-05-25T06:16:00.955Z,10.15
2019-05-25T06:18:34.805Z,9.60
2019-05-25T06:21:08.563Z,8.80
2019-05-25T06:23:42.748Z,8.78
2019-05-25T06:26:16.448Z,9.10
2019-05-25T06:28:50.806Z,8.15
2019-05-25T06:31:24.669Z,9.03
2019-05-25T06:33:58.353Z,8.40
2019-05-25T06:36:35.935Z,9.30
2019-05-25T06:39:10.318Z,8.98
2019-05-25T06:41:45.378Z,8.68
2019-05-25T06:44:19.091Z,9.00
2019-05-25T06:46:52.866Z,7.25
2019-05-25T06:49:26.547Z,6.15
2019-05-25T06:52:00.257Z,7.40
2019-05-25T06:54:33.917Z,6.12
2019-05-25T06:57:09.416Z,6.78
2019-05-25T06:59:43.194Z,6.90
2019-05-25T07:02:16.905Z,7.65
2019-05-25T07:04:50.600Z,6.53
2019-05-25T07:07:24.270Z,6.55
2019-05-25T07:09:58.842Z,7.40
2019-05-25T07:12:32.524Z,6.78
2019-05-25T07:15:12.313Z,6.67
2019-05-25T07:17:45.926Z,6.70
2019-05-25T07:20:20.318Z,6.92
2019-05-25T07:22:54.205Z,6.33
2019-05-25T07:25:28.293Z,6.28
2019-05-25T07:28:02.453Z,5.25
2019-05-25T07:30:36.141Z,4.92
2019-05-25T07:33:10.415Z,5.37
2019-05-25T07:35:44.085Z,5.37
2019-05-25T07:38:17.882Z,5.10
2019-05-25T07:40:51.541Z,5.22
2019-05-25T07:43:25.267Z,4.08
2019-05-25T07:45:59.177Z,4.80
2019-05-25T07:48:32.896Z,4.42
2019-05-25T07:51:06.663Z,3.95
2019-05-25T07:53:40.376Z,4.10
2019-05-25T07:56:14.076Z,4.35
2019-05-25T07:58:47.825Z,4.80
2019-05-25T08:01:21.567Z,4.33
2019-05-25T08:03:55.729Z,4.03
2019-05-25T08:06:29.473Z,4.25
2019-05-25T08:09:05.297Z,5.05
2019-05-25T08:11:39.276Z,4.92
2019-05-25T08:14:12.946Z,5.20
2019-05-25T08:16:46.625Z,4.10
2019-05-25T08:19:20.428Z,4.67
2019-05-25T08:21:54.208Z,4.05
2019-05-25T08:24:27.898Z,4.40
2019-05-25T08:27:01.596Z,4.92
2019-05-25T08:29:35.455Z,5.03
2019-05-25T08:32:09.270Z,3.75
2019-05-25T08:34:42.843Z,3.75
2019-05-25T08:37:17.146Z,4.60
2019-05-25T08:39:50.929Z,4.53
2019-05-25T08:42:24.749Z,4.03
2019-05-25T08:44:58.406Z,4.20
2019-05-25T08:47:32.188Z,4.40
2019-05-25T08:50:08.367Z,4.05
2019-05-25T08:52:42.667Z,3.00
2019-05-25T08:55:17.035Z,3.87
2019-05-25T08:57:51.658Z,4.53
2019-05-25T09:00:26.408Z,4.12
2019-05-25T09:03:00.001Z,5.47
2019-05-25T09:05:33.768Z,5.40
2019-05-25T09:08:10.365Z,4.42
2019-05-25T09:10:44.034Z,4.37
2019-05-25T09:13:18.279Z,4.37
2019-05-25T09:15:51.913Z,4.20
2019-05-25T09:18:25.704Z,4.40
2019-05-25T09:20:59.873Z,4.08
2019-05-25T09:23:33.649Z,4.00
2019-05-25T09:26:07.239Z,4.12
2019-05-25T09:28:40.935Z,4.22
2019-05-25T09:31:14.680Z,4.15
2019-05-25T09:33:48.448Z,4.42
2019-05-25T09:36:22.119Z,4.40
2019-05-25T09:38:59.749Z,3.90
2019-05-25T09:41:38.956Z,5.28
2019-05-25T09:44:12.665Z,5.25
2019-05-25T09:46:53.917Z,3.87
2019-05-25T09:49:28.080Z,4.20
2019-05-25T09:52:01.968Z,4.30
2019-05-25T09:54:36.589Z,4.15
2019-05-25T09:57:12.128Z,4.15
2019-05-25T09:59:46.038Z,4.87
2019-05-25T10:05:00.083Z,4.62
2019-05-25T10:07:33.846Z,4.40
2019-05-25T10:10:14.813Z,5.00
2019-05-25T10:12:48.566Z,5.00
2019-05-25T10:15:22.296Z,5.15
2019-05-25T10:17:55.995Z,5.37
2019-05-25T10:20:33.599Z,5.00
2019-05-25T10:23:10.050Z,4.67
2019-05-25T10:25:44.298Z,4.85
2019-05-25T10:28:20.516Z,4.80
2019-05-25T10:30:54.982Z,4.75
2019-05-25T10:33:39.035Z,4.70
2019-05-25T10:36:11.022Z,4.78
2019-05-25T10:38:46.132Z,5.67
2019-05-25T10:41:19.868Z,4.20
2019-05-25T10:43:59.328Z,4.22
2019-05-25T10:46:33.105Z,5.65
2019-05-25T10:49:06.838Z,4.20
2019-05-25T10:51:40.528Z,4.53
2019-05-25T10:54:14.335Z,5.22
2019-05-25T10:56:48.133Z,5.03
2019-05-25T10:59:22.335Z,3.50
2019-05-25T11:01:56.167Z,4.15
2019-05-25T11:04:29.848Z,4.28
2019-05-25T11:07:03.765Z,4.80
2019-05-25T11:09:39.355Z,4.28
2019-05-25T11:12:15.197Z,4.47
2019-05-25T11:14:49.791Z,4.75
2019-05-25T11:17:23.597Z,4.97
2019-05-25T11:19:59.469Z,5.50
2019-05-25T11:22:33.311Z,5.10
2019-05-25T11:25:18.958Z,4.60
2019-05-25T11:27:52.667Z,4.05
2019-05-25T11:30:26.559Z,4.75
2019-05-25T11:33:00.380Z,4.60
2019-05-25T11:35:34.038Z,4.62
2019-05-25T11:38:09.411Z,4.55
2019-05-25T11:40:45.857Z,4.95
2019-05-25T11:43:19.882Z,4.70
2019-05-25T11:45:53.598Z,4.35
2019-05-25T11:48:31.982Z,4.62
2019-05-25T11:51:12.854Z,4.10
2019-05-25T11:53:43.231Z,4.70
2019-05-25T11:56:17.931Z,4.90
2019-05-25T11:58:53.371Z,4.65
2019-05-25T12:01:27.153Z,4.75
2019-05-25T12:04:00.974Z,5.28
2019-05-25T12:06:34.628Z,4.78
2019-05-25T12:09:09.418Z,4.30
2019-05-25T12:11:43.495Z,4.80
2019-05-25T12:14:18.139Z,4.55
2019-05-25T12:16:51.902Z,4.70
2019-05-25T12:19:27.241Z,4.40
2019-05-25T12:22:01.438Z,4.78
2019-05-25T12:24:35.213Z,4.47
2019-05-25T12:27:09.071Z,4.35
2019-05-25T12:29:43.177Z,3.98
2019-05-25T12:32:16.826Z,3.70
2019-05-25T12:34:50.867Z,3.98
2019-05-25T12:37:24.507Z,3.80
2019-05-25T12:39:58.271Z,4.25
2019-05-25T12:42:32.048Z,3.70
2019-05-25T12:45:07.363Z,4.10
2019-05-25T12:47:41.105Z,3.90
2019-05-25T12:50:16.712Z,3.27
2019-05-25T12:52:51.369Z,3.85
2019-05-25T12:55:25.167Z,4.12
2019-05-25T12:58:03.777Z,4.20
2019-05-25T13:00:37.626Z,3.95
2019-05-25T13:03:12.431Z,3.55
2019-05-25T13:05:47.228Z,3.80
2019-05-25T13:08:23.835Z,3.87
2019-05-25T13:10:58.385Z,5.15
2019-05-25T13:13:35.063Z,3.60
2019-05-25T13:16:08.920Z,3.30
2019-05-25T13:18:43.530Z,2.98
2019-05-25T13:21:18.060Z,3.10
2019-05-25T13:23:52.120Z,3.47
2019-05-25T13:26:26.161Z,3.60
2019-05-25T13:28:59.819Z,3.52
2019-05-25T13:31:34.139Z,3.77
2019-05-25T13:34:16.491Z,3.60
2019-05-25T13:36:50.188Z,3.20
2019-05-25T13:39:24.634Z,3.33
2019-05-25T13:41:58.319Z,3.20
2019-05-25T13:44:32.209Z,3.60
2019-05-25T13:47:06.263Z,3.87
2019-05-25T13:49:40.369Z,3.77
2019-05-25T13:52:15.315Z,3.60
2019-05-25T13:54:48.996Z,3.92
2019-05-25T13:57:23.585Z,4.00
2019-05-25T13:59:57.307Z,3.62
2019-05-25T14:02:31.286Z,3.37
2019-05-25T14:05:08.297Z,4.33
2019-05-25T14:07:42.305Z,4.30
2019-05-25T14:10:16.218Z,4.50
2019-05-25T14:12:49.959Z,4.25
2019-05-25T14:15:25.287Z,5.00
2019-05-25T14:17:59.150Z,4.67
2019-05-25T14:20:32.824Z,4.95
2019-05-25T14:23:06.607Z,4.53
2019-05-25T14:25:40.377Z,4.92
2019-05-25T14:28:14.076Z,4.75
2019-05-25T14:30:48.533Z,5.60
2019-05-25T14:33:24.056Z,6.97
2019-05-25T14:35:58.680Z,6.75
2019-05-25T14:38:32.754Z,7.20
2019-05-25T14:41:06.438Z,6.53
2019-05-25T14:43:40.573Z,6.25
2019-05-25T14:46:26.805Z,7.78
2019-05-25T14:48:49.819Z,7.78
2019-05-25T14:51:23.488Z,7.22
2019-05-25T14:53:57.176Z,7.00
2019-05-25T14:56:32.528Z,8.60
2019-05-25T14:59:06.683Z,9.78
2019-05-25T15:01:40.507Z,9.65
2019-05-25T15:04:14.404Z,8.95
2019-05-25T15:06:48.239Z,9.25
2019-05-25T15:09:22.801Z,8.95
2019-05-25T15:11:56.680Z,6.92
2019-05-25T15:14:32.406Z,9.40
2019-05-25T15:17:06.238Z,7.72
2019-05-25T15:19:42.379Z,7.58
2019-05-25T15:22:16.269Z,7.50
2019-05-25T15:24:50.459Z,7.10
2019-05-25T15:27:24.127Z,8.90
2019-05-25T15:29:57.953Z,9.25
2019-05-25T15:32:31.868Z,8.03
2019-05-25T15:35:07.426Z,7.12
2019-05-25T15:37:41.098Z,6.85
2019-05-25T15:40:15.785Z,6.53
2019-05-25T15:42:49.504Z,7.50
2019-05-25T15:45:23.393Z,7.78
2019-05-25T15:47:57.285Z,8.93
2019-05-25T15:50:31.225Z,8.78
2019-05-25T15:53:05.671Z,8.95
2019-05-25T15:55:39.561Z,10.05
2019-05-25T15:58:13.548Z,9.15
2019-05-25T16:00:52.026Z,7.95
2019-05-25T16:03:26.015Z,8.35
2019-05-25T16:06:00.099Z,8.80
2019-05-25T16:08:33.842Z,8.83
2019-05-25T16:11:08.746Z,8.48
2019-05-25T16:13:43.505Z,7.42
2019-05-25T16:16:17.269Z,7.67
2019-05-25T16:18:50.979Z,8.03
2019-05-25T16:21:25.598Z,7.40
2019-05-25T16:23:59.270Z,7.00
2019-05-25T16:26:45.455Z,7.60
2019-05-25T16:29:08.454Z,8.13
2019-05-25T16:31:43.018Z,8.60
2019-05-25T16:34:16.707Z,8.15
2019-05-25T16:36:51.010Z,8.43
2019-05-25T16:39:24.858Z,8.60
2019-05-25T16:41:58.591Z,8.00
2019-05-25T16:44:32.418Z,8.55
2019-05-25T16:47:06.479Z,8.40
2019-05-25T16:49:40.278Z,8.00
2019-05-25T16:52:14.129Z,11.97
2019-05-25T16:54:53.784Z,10.85
2019-05-25T16:57:27.636Z,8.88
2019-05-25T17:00:01.407Z,9.05
2019-05-25T17:02:35.399Z,8.30
2019-05-25T17:05:09.888Z,8.18
2019-05-25T17:07:43.563Z,8.20
2019-05-25T17:10:17.336Z,9.08
2019-05-25T17:12:51.142Z,8.55
2019-05-25T17:15:25.619Z,8.40
2019-05-25T17:17:59.559Z,9.23
2019-05-25T17:20:33.217Z,9.10
2019-05-25T17:23:07.305Z,9.68
2019-05-25T17:25:40.985Z,9.00
2019-05-25T17:28:17.611Z,10.15
2019-05-25T17:30:51.417Z,9.70
2019-05-25T17:33:25.178Z,10.70
2019-05-25T17:35:58.944Z,15.83
2019-05-25T17:38:32.799Z,28.85
2019-05-25T17:41:06.496Z,130.47
2019-05-25T17:43:40.240Z,312.82
2019-05-25T17:46:14.042Z,109.42
2019-05-25T17:48:50.912Z,21.02
2019-05-25T17:51:25.886Z,15.63
2019-05-25T17:53:59.602Z,14.70
2019-05-25T17:56:34.508Z,14.03
2019-05-25T17:59:08.337Z,16.57
2019-05-25T18:01:42.396Z,24.60
2019-05-25T18:04:16.188Z,32.00
2019-05-25T18:06:49.995Z,21.42
2019-05-25T18:09:24.123Z,16.93
2019-05-25T18:11:57.796Z,24.45
2019-05-25T18:14:31.641Z,15.45
2019-05-25T18:17:05.549Z,11.97
2019-05-25T18:19:39.393Z,13.60
2019-05-25T18:22:13.108Z,19.70
2019-05-25T18:24:47.035Z,19.15
2019-05-25T18:27:21.128Z,16.82
2019-05-25T18:29:54.878Z,13.35
2019-05-25T18:32:28.725Z,13.75
2019-05-25T18:35:02.646Z,12.33
2019-05-25T18:37:36.972Z,11.73
2019-05-25T18:40:12.869Z,12.23
2019-05-25T18:42:47.529Z,14.23
2019-05-25T18:45:21.855Z,16.15
2019-05-25T18:47:55.918Z,19.57
2019-05-25T18:50:29.668Z,19.50
2019-05-25T18:53:04.498Z,51.50
2019-05-25T18:55:39.997Z,32.15
2019-05-25T18:58:13.702Z,56.40
2019-05-25T19:00:47.397Z,31.25
2019-05-25T19:03:21.586Z,21.68
2019-05-25T19:05:55.335Z,53.78
2019-05-25T19:08:29.024Z,21.17
2019-05-25T19:11:04.847Z,22.40
2019-05-25T19:13:38.558Z,16.45
2019-05-25T19:16:12.310Z,16.55
2019-05-25T19:18:47.757Z,14.45
2019-05-25T19:21:23.222Z,17.50
2019-05-25T19:23:56.897Z,19.27
2019-05-25T19:26:30.817Z,22.15
2019-05-25T19:29:05.888Z,35.25
2019-05-25T19:31:39.817Z,23.95
2019-05-25T19:34:13.517Z,25.12
2019-05-25T19:36:47.258Z,25.02
2019-05-25T19:39:21.070Z,18.67
2019-05-25T19:41:54.831Z,95.67
2019-05-25T19:44:29.098Z,42.35
2019-05-25T19:47:02.898Z,18.37
2019-05-25T19:49:36.727Z,19.40
2019-05-25T19:52:10.569Z,27.25
2019-05-25T19:54:44.781Z,20.97
2019-05-25T19:57:18.638Z,22.87
2019-05-25T19:59:52.415Z,21.52
2019-05-25T20:02:26.258Z,18.95
2019-05-25T20:05:15.225Z,19.07
2019-05-25T20:07:35.522Z,20.37
2019-05-25T20:10:11.470Z,21.48
2019-05-25T20:12:45.221Z,23.92
2019-05-25T20:15:19.502Z,22.60
2019-05-25T20:17:53.378Z,26.40
2019-05-25T20:20:27.254Z,29.40
2019-05-25T20:23:01.143Z,25.32
2019-05-25T20:25:36.574Z,21.70
2019-05-25T20:28:10.538Z,22.02
2019-05-25T20:30:44.936Z,22.70
2019-05-25T20:33:27.822Z,22.07
2019-05-25T20:35:54.407Z,22.85
2019-05-25T20:38:28.246Z,22.90
2019-05-25T20:41:01.919Z,22.90
2019-05-25T20:43:36.027Z,22.87
2019-05-25T20:46:09.669Z,22.42
2019-05-25T20:48:43.529Z,22.13
2019-05-25T20:51:17.287Z,24.32
2019-05-25T20:53:51.006Z,22.73
2019-05-25T20:56:24.743Z,22.87
2019-05-25T20:58:58.648Z,22.52
2019-05-25T21:01:32.437Z,24.27
2019-05-25T21:04:06.271Z,24.00
2019-05-25T21:06:40.054Z,21.68
2019-05-25T21:09:13.871Z,22.07
2019-05-25T21:11:48.472Z,22.77
2019-05-25T21:14:22.362Z,24.32
2019-05-25T21:16:56.046Z,24.18
2019-05-25T21:19:29.847Z,24.65
2019-05-25T21:22:03.498Z,24.47
2019-05-25T21:24:37.308Z,23.60
2019-05-25T21:27:12.036Z,24.25
2019-05-25T21:29:46.098Z,23.77
2019-05-25T21:32:19.761Z,24.85
2019-05-25T21:34:53.584Z,25.52
2019-05-25T21:37:28.378Z,27.77
2019-05-25T21:40:02.192Z,24.30
2019-05-25T21:42:36.356Z,24.30
2019-05-25T21:45:12.019Z,22.67
2019-05-25T21:47:46.043Z,25.23
2019-05-25T21:50:21.557Z,22.70
2019-05-25T21:52:55.249Z,23.30
2019-05-25T21:55:29.048Z,25.02
2019-05-25T21:58:02.784Z,25.17
2019-05-25T22:00:38.160Z,25.15
2019-05-25T22:03:11.848Z,24.80
2019-05-25T22:05:45.857Z,24.63
2019-05-25T22:08:20.390Z,24.30
2019-05-25T22:10:55.275Z,24.90
2019-05-25T22:13:32.267Z,24.77
2019-05-25T22:16:06.408Z,24.18
2019-05-25T22:18:40.631Z,23.87
2019-05-25T22:21:14.346Z,23.90
2019-05-25T22:23:48.034Z,21.77
2019-05-25T22:26:22.245Z,23.30
2019-05-25T22:28:56.374Z,24.00
2019-05-25T22:31:30.039Z,23.73
2019-05-25T22:34:05.214Z,23.00
2019-05-25T22:36:40.725Z,22.58
2019-05-25T22:39:14.746Z,22.70
2019-05-25T22:41:48.662Z,22.22
2019-05-25T22:44:22.842Z,21.60
2019-05-25T22:46:56.528Z,21.15
2019-05-25T22:49:30.616Z,20.88
2019-05-25T22:52:04.967Z,20.68
2019-05-25T22:54:38.683Z,20.72
2019-05-25T22:57:12.439Z,20.48
2019-05-25T22:59:46.119Z,20.30
2019-05-25T23:02:19.815Z,20.32
2019-05-25T23:04:54.694Z,21.57
2019-05-25T23:07:28.386Z,20.80
2019-05-25T23:10:02.099Z,20.00
2019-05-25T23:12:35.776Z,20.27
2019-05-25T23:15:12.090Z,19.17
2019-05-25T23:17:45.967Z,20.02
2019-05-25T23:20:20.245Z,19.70
2019-05-25T23:22:54.316Z,19.12
2019-05-25T23:25:29.776Z,18.65
2019-05-25T23:28:03.655Z,19.70
2019-05-25T23:30:37.555Z,18.55
2019-05-25T23:33:11.226Z,20.05
2019-05-25T23:35:46.036Z,18.45
2019-05-25T23:38:19.807Z,19.57
2019-05-25T23:40:53.549Z,18.60
2019-05-25T23:43:27.360Z,17.95
2019-05-25T23:46:02.062Z,19.40
2019-05-25T23:48:35.724Z,18.35
2019-05-25T23:51:09.426Z,19.85
2019-05-25T23:53:43.596Z,19.45
2019-05-25T23:56:17.685Z,19.70
2019-05-25T23:58:51.650Z,20.30
